sensor_id;sensor_type;location;lat;lon;timestamp;pressure;altitude;pressure_sealevel;temperature;humidity
69171;BME280;56279;47.902;12.308;2023-04-07T00:01:13;95408.50;;;2.32;68.36
69171;BME280;56279;47.902;12.308;2023-04-07T00:03:15;95406.47;;;2.34;68.00
69171;BME280;56279;47.902;12.308;2023-04-07T00:05:17;95407.03;;;2.36;67.64
69171;BME280;56279;47.902;12.308;2023-04-07T00:07:19;95405.22;;;2.36;68.53
69171;BME280;56279;47.902;12.308;2023-04-07T00:09:20;95411.59;;;2.40;68.58
69171;BME280;56279;47.902;12.308;2023-04-07T00:11:21;95419.50;;;2.45;68.03
69171;BME280;56279;47.902;12.308;2023-04-07T00:13:23;95417.84;;;2.51;68.18
69171;BME280;56279;47.902;12.308;2023-04-07T00:15:24;95421.56;;;2.55;68.67
69171;BME280;56279;47.902;12.308;2023-04-07T00:17:25;95420.91;;;2.59;68.70
69171;BME280;56279;47.902;12.308;2023-04-07T00:19:28;95422.06;;;2.63;68.84
69171;BME280;56279;47.902;12.308;2023-04-07T00:21:29;95414.25;;;2.63;68.47
69171;BME280;56279;47.902;12.308;2023-04-07T00:23:31;95418.66;;;2.63;68.97
69171;BME280;56279;47.902;12.308;2023-04-07T00:25:32;95415.47;;;2.61;68.64
69171;BME280;56279;47.902;12.308;2023-04-07T00:27:34;95415.13;;;2.57;68.28
69171;BME280;56279;47.902;12.308;2023-04-07T00:29:35;95410.81;;;2.51;69.58
69171;BME280;56279;47.902;12.308;2023-04-07T00:31:37;95409.91;;;2.46;69.02
69171;BME280;56279;47.902;12.308;2023-04-07T00:33:39;95409.00;;;2.40;68.85
69171;BME280;56279;47.902;12.308;2023-04-07T00:35:41;95403.66;;;2.35;69.32
69171;BME280;56279;47.902;12.308;2023-04-07T00:37:43;95411.56;;;2.29;69.71
69171;BME280;56279;47.902;12.308;2023-04-07T00:39:45;95403.63;;;2.24;69.66
69171;BME280;56279;47.902;12.308;2023-04-07T00:41:47;95406.09;;;2.19;69.61
69171;BME280;56279;47.902;12.308;2023-04-07T00:43:49;95405.75;;;2.15;70.04
69171;BME280;56279;47.902;12.308;2023-04-07T00:45:52;95401.44;;;2.09;69.71
69171;BME280;56279;47.902;12.308;2023-04-07T00:47:56;95393.50;;;2.04;70.24
69171;BME280;56279;47.902;12.308;2023-04-07T00:49:58;95397.56;;;2.00;70.73
69171;BME280;56279;47.902;12.308;2023-04-07T00:51:59;95394.81;;;1.95;70.03
69171;BME280;56279;47.902;12.308;2023-04-07T00:54:01;95410.06;;;1.91;70.72
69171;BME280;56279;47.902;12.308;2023-04-07T00:56:03;95401.94;;;1.88;70.32
69171;BME280;56279;47.902;12.308;2023-04-07T00:58:05;95406.78;;;1.84;70.99
69171;BME280;56279;47.902;12.308;2023-04-07T01:00:07;95408.69;;;1.77;70.78
69171;BME280;56279;47.902;12.308;2023-04-07T01:02:15;95409.22;;;1.68;70.61
69171;BME280;56279;47.902;12.308;2023-04-07T01:06:23;95412.84;;;1.49;71.46
69171;BME280;56279;47.902;12.308;2023-04-07T01:08:45;95403.28;;;1.42;71.91
69171;BME280;56279;47.902;12.308;2023-04-07T01:10:56;95407.56;;;1.37;71.47
69171;BME280;56279;47.902;12.308;2023-04-07T01:13:05;95393.63;;;1.31;71.46
69171;BME280;56279;47.902;12.308;2023-04-07T01:15:10;95391.91;;;1.25;71.40
69171;BME280;56279;47.902;12.308;2023-04-07T01:17:16;95390.72;;;1.21;72.06
69171;BME280;56279;47.902;12.308;2023-04-07T01:21:33;95384.13;;;1.07;72.18
69171;BME280;56279;47.902;12.308;2023-04-07T01:30:27;95385.09;;;0.88;73.21
69171;BME280;56279;47.902;12.308;2023-04-07T01:32:29;95391.09;;;0.89;72.62
69171;BME280;56279;47.902;12.308;2023-04-07T01:34:33;95386.53;;;0.84;73.22
69171;BME280;56279;47.902;12.308;2023-04-07T01:36:35;95383.72;;;0.86;73.30
69171;BME280;56279;47.902;12.308;2023-04-07T01:38:37;95385.28;;;0.87;72.77
69171;BME280;56279;47.902;12.308;2023-04-07T01:40:40;95395.69;;;0.87;73.48
69171;BME280;56279;47.902;12.308;2023-04-07T01:42:42;95385.09;;;0.88;72.92
69171;BME280;56279;47.902;12.308;2023-04-07T01:44:47;95391.66;;;0.91;73.12
69171;BME280;56279;47.902;12.308;2023-04-07T01:46:48;95388.84;;;0.92;73.74
69171;BME280;56279;47.902;12.308;2023-04-07T01:48:52;95395.66;;;0.93;73.75
69171;BME280;56279;47.902;12.308;2023-04-07T01:50:54;95396.22;;;0.95;72.78
69171;BME280;56279;47.902;12.308;2023-04-07T01:53:02;95391.03;;;0.95;73.28
69171;BME280;56279;47.902;12.308;2023-04-07T01:55:07;95391.03;;;0.95;73.87
69171;BME280;56279;47.902;12.308;2023-04-07T01:57:13;95387.41;;;0.96;72.71
69171;BME280;56279;47.902;12.308;2023-04-07T01:59:16;95391.03;;;0.95;73.08
69171;BME280;56279;47.902;12.308;2023-04-07T02:01:17;95381.63;;;0.94;73.49
69171;BME280;56279;47.902;12.308;2023-04-07T02:03:23;95384.47;;;0.93;74.03
69171;BME280;56279;47.902;12.308;2023-04-07T02:05:28;95384.06;;;0.89;73.01
69171;BME280;56279;47.902;12.308;2023-04-07T02:07:51;95380.91;;;0.87;73.66
69171;BME280;56279;47.902;12.308;2023-04-07T02:09:57;95378.31;;;0.87;73.89
69171;BME280;56279;47.902;12.308;2023-04-07T02:11:59;95381.94;;;0.86;73.30
69171;BME280;56279;47.902;12.308;2023-04-07T02:14:08;95380.72;;;0.89;73.89
69171;BME280;56279;47.902;12.308;2023-04-07T02:16:30;95379.69;;;0.90;73.61
69171;BME280;56279;47.902;12.308;2023-04-07T02:18:36;95375.88;;;0.92;73.47
69171;BME280;56279;47.902;12.308;2023-04-07T02:20:39;95370.25;;;0.95;73.05
69171;BME280;56279;47.902;12.308;2023-04-07T02:22:42;95363.38;;;1.01;73.60
69171;BME280;56279;47.902;12.308;2023-04-07T02:24:46;95371.13;;;1.07;73.01
69171;BME280;56279;47.902;12.308;2023-04-07T02:26:47;95366.66;;;1.14;72.93
69171;BME280;56279;47.902;12.308;2023-04-07T02:28:48;95363.75;;;1.22;73.81
69171;BME280;56279;47.902;12.308;2023-04-07T02:30:51;95359.25;;;1.29;73.71
69171;BME280;56279;47.902;12.308;2023-04-07T02:32:53;95360.22;;;1.35;73.23
69171;BME280;56279;47.902;12.308;2023-04-07T02:34:54;95365.31;;;1.42;73.22
69171;BME280;56279;47.902;12.308;2023-04-07T02:36:56;95361.25;;;1.46;72.47
69171;BME280;56279;47.902;12.308;2023-04-07T02:38:57;95360.84;;;1.49;72.85
69171;BME280;56279;47.902;12.308;2023-04-07T02:40:58;95363.00;;;1.52;72.36
69171;BME280;56279;47.902;12.308;2023-04-07T02:42:59;95357.34;;;1.55;72.73
69171;BME280;56279;47.902;12.308;2023-04-07T02:45:02;95357.72;;;1.58;73.32
69171;BME280;56279;47.902;12.308;2023-04-07T02:47:06;95351.06;;;1.62;72.21
69171;BME280;56279;47.902;12.308;2023-04-07T02:49:09;95346.78;;;1.68;72.16
69171;BME280;56279;47.902;12.308;2023-04-07T02:51:12;95352.09;;;1.73;72.58
69171;BME280;56279;47.902;12.308;2023-04-07T02:53:14;95345.78;;;1.80;71.58
69171;BME280;56279;47.902;12.308;2023-04-07T02:55:16;95345.94;;;1.85;71.55
69171;BME280;56279;47.902;12.308;2023-04-07T02:57:19;95351.50;;;1.89;71.54
69171;BME280;56279;47.902;12.308;2023-04-07T02:59:22;95345.63;;;1.93;70.37
69171;BME280;56279;47.902;12.308;2023-04-07T03:01:23;95351.16;;;1.97;69.85
69171;BME280;56279;47.902;12.308;2023-04-07T03:03:25;95339.53;;;1.99;70.48
69171;BME280;56279;47.902;12.308;2023-04-07T03:05:38;95341.88;;;2.01;70.42
69171;BME280;56279;47.902;12.308;2023-04-07T03:07:43;95339.09;;;2.02;69.91
69171;BME280;56279;47.902;12.308;2023-04-07T03:09:45;95329.09;;;1.99;69.55
69171;BME280;56279;47.902;12.308;2023-04-07T03:11:49;95332.72;;;1.98;70.33
69171;BME280;56279;47.902;12.308;2023-04-07T03:13:50;95331.38;;;1.96;69.67
69171;BME280;56279;47.902;12.308;2023-04-07T03:15:51;95330.78;;;1.94;69.52
69171;BME280;56279;47.902;12.308;2023-04-07T03:17:54;95332.00;;;1.91;69.75
69171;BME280;56279;47.902;12.308;2023-04-07T03:19:55;95332.00;;;1.91;69.81
69171;BME280;56279;47.902;12.308;2023-04-07T03:21:57;95327.28;;;1.88;69.76
69171;BME280;56279;47.902;12.308;2023-04-07T03:23:59;95326.47;;;1.88;69.50
69171;BME280;56279;47.902;12.308;2023-04-07T03:26:01;95329.31;;;1.86;69.57
69171;BME280;56279;47.902;12.308;2023-04-07T03:28:07;95327.72;;;1.85;69.79
69171;BME280;56279;47.902;12.308;2023-04-07T03:30:12;95330.56;;;1.84;69.63
69171;BME280;56279;47.902;12.308;2023-04-07T03:32:13;95331.13;;;1.86;69.29
69171;BME280;56279;47.902;12.308;2023-04-07T03:34:17;95323.88;;;1.88;69.03
69171;BME280;56279;47.902;12.308;2023-04-07T03:36:19;95326.63;;;1.93;68.42
69171;BME280;56279;47.902;12.308;2023-04-07T03:38:22;95331.03;;;2.04;68.52
69171;BME280;56279;47.902;12.308;2023-04-07T03:40:29;95328.91;;;2.13;68.07
69171;BME280;56279;47.902;12.308;2023-04-07T03:42:30;95327.47;;;2.17;67.82
69171;BME280;56279;47.902;12.308;2023-04-07T03:44:38;95328.81;;;2.19;67.68
69171;BME280;56279;47.902;12.308;2023-04-07T03:46:39;95329.38;;;2.21;67.74
69171;BME280;56279;47.902;12.308;2023-04-07T03:48:41;95326.53;;;2.23;68.04
69171;BME280;56279;47.902;12.308;2023-04-07T03:50:45;95322.13;;;2.23;67.96
69171;BME280;56279;47.902;12.308;2023-04-07T03:52:50;95327.91;;;2.25;67.63
69171;BME280;56279;47.902;12.308;2023-04-07T03:54:59;95327.91;;;2.25;67.31
69171;BME280;56279;47.902;12.308;2023-04-07T03:57:06;95324.50;;;2.25;67.25
69171;BME280;56279;47.902;12.308;2023-04-07T03:59:13;95319.31;;;2.25;67.40
69171;BME280;56279;47.902;12.308;2023-04-07T04:01:31;95322.13;;;2.23;66.89
69171;BME280;56279;47.902;12.308;2023-04-07T04:03:40;95318.72;;;2.23;67.44
69171;BME280;56279;47.902;12.308;2023-04-07T04:05:55;95310.69;;;2.24;67.02
69171;BME280;56279;47.902;12.308;2023-04-07T04:08:03;95312.66;;;2.29;67.18
69171;BME280;56279;47.902;12.308;2023-04-07T04:10:07;95311.63;;;2.30;66.61
69171;BME280;56279;47.902;12.308;2023-04-07T04:12:14;95311.38;;;2.31;66.59
69171;BME280;56279;47.902;12.308;2023-04-07T04:14:27;95303.81;;;2.30;66.47
69171;BME280;56279;47.902;12.308;2023-04-07T04:16:33;95303.38;;;2.33;67.04
69171;BME280;56279;47.902;12.308;2023-04-07T04:18:39;95304.72;;;2.35;65.99
69171;BME280;56279;47.902;12.308;2023-04-07T04:20:42;95307.88;;;2.37;66.02
69171;BME280;56279;47.902;12.308;2023-04-07T04:22:44;95307.66;;;2.39;66.30
69171;BME280;56279;47.902;12.308;2023-04-07T04:24:46;95310.06;;;2.40;65.60
69171;BME280;56279;47.902;12.308;2023-04-07T04:26:48;95304.59;;;2.42;65.95
69171;BME280;56279;47.902;12.308;2023-04-07T04:28:49;95308.56;;;2.44;65.64
69171;BME280;56279;47.902;12.308;2023-04-07T04:30:53;95304.50;;;2.48;65.88
69171;BME280;56279;47.902;12.308;2023-04-07T04:32:55;95303.47;;;2.49;66.01
69171;BME280;56279;47.902;12.308;2023-04-07T04:35:16;95303.00;;;2.52;66.03
69171;BME280;56279;47.902;12.308;2023-04-07T04:37:37;95309.38;;;2.56;65.75
69171;BME280;56279;47.902;12.308;2023-04-07T04:39:44;95302.91;;;2.59;66.42
69171;BME280;56279;47.902;12.308;2023-04-07T04:41:47;95311.28;;;2.61;65.87
69171;BME280;56279;47.902;12.308;2023-04-07T04:43:49;95311.63;;;2.64;65.63
69171;BME280;56279;47.902;12.308;2023-04-07T04:45:57;95304.91;;;2.68;65.49
69171;BME280;56279;47.902;12.308;2023-04-07T04:48:01;95309.69;;;2.71;65.85
69171;BME280;56279;47.902;12.308;2023-04-07T04:50:06;95306.63;;;2.74;66.28
69171;BME280;56279;47.902;12.308;2023-04-07T04:52:10;95300.97;;;2.77;65.46
69171;BME280;56279;47.902;12.308;2023-04-07T04:54:18;95299.50;;;2.82;65.70
69171;BME280;56279;47.902;12.308;2023-04-07T04:56:20;95304.81;;;2.87;65.38
69171;BME280;56279;47.902;12.308;2023-04-07T04:58:23;95304.69;;;2.93;65.84
69171;BME280;56279;47.902;12.308;2023-04-07T05:00:28;95303.19;;;2.97;66.12
69171;BME280;56279;47.902;12.308;2023-04-07T05:02:35;95301.94;;;3.00;66.02
69171;BME280;56279;47.902;12.308;2023-04-07T05:04:39;95308.28;;;3.04;66.03
69171;BME280;56279;47.902;12.308;2023-04-07T05:07:01;95304.41;;;3.06;66.31
69171;BME280;56279;47.902;12.308;2023-04-07T05:09:04;95308.16;;;3.10;66.35
69171;BME280;56279;47.902;12.308;2023-04-07T05:11:15;95298.84;;;3.14;66.87
69171;BME280;56279;47.902;12.308;2023-04-07T05:13:19;95300.78;;;3.19;65.99
69171;BME280;56279;47.902;12.308;2023-04-07T05:15:20;95305.06;;;3.25;66.78
69171;BME280;56279;47.902;12.308;2023-04-07T05:17:24;95295.53;;;3.30;66.28
69171;BME280;56279;47.902;12.308;2023-04-07T05:19:26;95296.41;;;3.36;66.74
69171;BME280;56279;47.902;12.308;2023-04-07T05:21:33;95296.03;;;3.44;67.25
69171;BME280;56279;47.902;12.308;2023-04-07T05:23:37;95302.16;;;3.49;66.54
69171;BME280;56279;47.902;12.308;2023-04-07T05:25:42;95292.38;;;3.57;66.96
69171;BME280;56279;47.902;12.308;2023-04-07T05:27:43;95297.69;;;3.62;67.11
69171;BME280;56279;47.902;12.308;2023-04-07T05:29:48;95300.69;;;3.70;67.23
69171;BME280;56279;47.902;12.308;2023-04-07T05:31:58;95289.66;;;3.80;66.93
69171;BME280;56279;47.902;12.308;2023-04-07T05:34:01;95296.38;;;3.92;67.08
69171;BME280;56279;47.902;12.308;2023-04-07T05:36:09;95300.81;;;4.08;66.28
69171;BME280;56279;47.902;12.308;2023-04-07T05:38:10;95291.34;;;4.36;65.84
69171;BME280;56279;47.902;12.308;2023-04-07T05:40:13;95299.91;;;4.69;64.39
69171;BME280;56279;47.902;12.308;2023-04-07T05:42:16;95289.84;;;5.00;63.92
69171;BME280;56279;47.902;12.308;2023-04-07T05:44:20;95293.28;;;5.22;63.21
69171;BME280;56279;47.902;12.308;2023-04-07T05:46:21;95294.19;;;5.32;62.59
69171;BME280;56279;47.902;12.308;2023-04-07T05:48:28;95299.72;;;5.36;62.62
69171;BME280;56279;47.902;12.308;2023-04-07T05:50:30;95295.84;;;5.38;62.30
69171;BME280;56279;47.902;12.308;2023-04-07T05:52:34;95303.69;;;5.38;62.10
69171;BME280;56279;47.902;12.308;2023-04-07T05:54:45;95299.25;;;5.39;62.10
69171;BME280;56279;47.902;12.308;2023-04-07T05:56:49;95299.47;;;5.37;61.99
69171;BME280;56279;47.902;12.308;2023-04-07T05:58:51;95294.25;;;5.37;62.04
69171;BME280;56279;47.902;12.308;2023-04-07T06:00:53;95300.00;;;5.39;62.08
69171;BME280;56279;47.902;12.308;2023-04-07T06:02:55;95294.56;;;5.41;61.88
69171;BME280;56279;47.902;12.308;2023-04-07T06:04:57;95300.56;;;5.41;61.75
69171;BME280;56279;47.902;12.308;2023-04-07T06:06:59;95300.00;;;5.39;61.88
69171;BME280;56279;47.902;12.308;2023-04-07T06:14:11;95304.63;;;5.27;61.68
69171;BME280;56279;47.902;12.308;2023-04-07T06:16:12;95302.00;;;5.27;61.80
69171;BME280;56279;47.902;12.308;2023-04-07T06:18:14;95305.69;;;5.31;61.69
69171;BME280;56279;47.902;12.308;2023-04-07T06:20:15;95301.28;;;5.37;61.50
69171;BME280;56279;47.902;12.308;2023-04-07T06:22:16;95302.69;;;5.44;61.98
69171;BME280;56279;47.902;12.308;2023-04-07T06:24:18;95302.03;;;5.54;61.40
69171;BME280;56279;47.902;12.308;2023-04-07T06:26:22;95300.25;;;5.59;61.21
69171;BME280;56279;47.902;12.308;2023-04-07T06:28:24;95294.50;;;5.63;60.93
69171;BME280;56279;47.902;12.308;2023-04-07T06:30:25;95294.47;;;5.57;60.88
69171;BME280;56279;47.902;12.308;2023-04-07T06:32:27;95292.34;;;5.54;61.20
69171;BME280;56279;47.902;12.308;2023-04-07T06:34:28;95292.84;;;5.51;61.39
69171;BME280;56279;47.902;12.308;2023-04-07T06:36:30;95296.44;;;5.45;61.07
69171;BME280;56279;47.902;12.308;2023-04-07T06:38:35;95295.09;;;5.43;61.09
69171;BME280;56279;47.902;12.308;2023-04-07T06:40:36;95289.94;;;5.48;60.66
69171;BME280;56279;47.902;12.308;2023-04-07T06:42:38;95295.75;;;5.55;60.89
69171;BME280;56279;47.902;12.308;2023-04-07T06:44:52;95293.75;;;5.62;60.68
69171;BME280;56279;47.902;12.308;2023-04-07T06:46:53;95292.50;;;5.70;60.46
69171;BME280;56279;47.902;12.308;2023-04-07T06:48:55;95292.53;;;5.75;60.51
69171;BME280;56279;47.902;12.308;2023-04-07T06:50:56;95301.78;;;5.82;60.15
69171;BME280;56279;47.902;12.308;2023-04-07T06:53:01;95286.41;;;5.86;60.14
69171;BME280;56279;47.902;12.308;2023-04-07T06:55:03;95293.22;;;5.87;60.05
69171;BME280;56279;47.902;12.308;2023-04-07T06:57:04;95294.81;;;5.88;59.94
69171;BME280;56279;47.902;12.308;2023-04-07T06:59:11;95289.31;;;5.89;60.12
69171;BME280;56279;47.902;12.308;2023-04-07T07:01:13;95292.75;;;5.90;59.98
69171;BME280;56279;47.902;12.308;2023-04-07T07:03:14;95288.28;;;5.90;59.92
69171;BME280;56279;47.902;12.308;2023-04-07T07:05:18;95284.38;;;5.93;59.79
69171;BME280;56279;47.902;12.308;2023-04-07T07:07:20;95294.34;;;5.96;59.65
69171;BME280;56279;47.902;12.308;2023-04-07T07:09:21;95289.66;;;5.98;59.72
69171;BME280;56279;47.902;12.308;2023-04-07T07:11:23;95292.28;;;5.98;60.08
69171;BME280;56279;47.902;12.308;2023-04-07T07:13:25;95290.75;;;6.02;59.95
69171;BME280;56279;47.902;12.308;2023-04-07T07:15:27;95286.09;;;6.09;59.97
69171;BME280;56279;47.902;12.308;2023-04-07T07:17:28;95287.47;;;6.16;59.98
69171;BME280;56279;47.902;12.308;2023-04-07T07:19:30;95285.16;;;6.20;59.77
69171;BME280;56279;47.902;12.308;2023-04-07T07:24:25;95290.97;;;6.27;59.40
69171;BME280;56279;47.902;12.308;2023-04-07T07:26:29;95289.84;;;6.18;60.10
69171;BME280;56279;47.902;12.308;2023-04-07T07:28:31;95293.50;;;6.17;60.01
69171;BME280;56279;47.902;12.308;2023-04-07T07:31:28;95298.69;;;6.12;60.37
69171;BME280;56279;47.902;12.308;2023-04-07T07:33:41;95297.56;;;6.03;60.46
69171;BME280;56279;47.902;12.308;2023-04-07T07:35:43;95292.78;;;5.95;60.82
69171;BME280;56279;47.902;12.308;2023-04-07T07:37:45;95284.66;;;5.96;60.90
69171;BME280;56279;47.902;12.308;2023-04-07T07:42:11;95283.81;;;6.17;61.54
69171;BME280;56279;47.902;12.308;2023-04-07T07:44:12;95284.72;;;6.33;61.47
69171;BME280;56279;47.902;12.308;2023-04-07T07:46:14;95275.16;;;6.49;61.41
69171;BME280;56279;47.902;12.308;2023-04-07T07:48:15;95277.34;;;6.67;61.41
69171;BME280;56279;47.902;12.308;2023-04-07T07:50:17;95276.44;;;6.88;60.93
69171;BME280;56279;47.902;12.308;2023-04-07T07:52:18;95283.34;;;7.09;61.05
69171;BME280;56279;47.902;12.308;2023-04-07T07:54:20;95281.34;;;7.31;60.68
69171;BME280;56279;47.902;12.308;2023-04-07T07:56:23;95279.84;;;7.50;60.52
69171;BME280;56279;47.902;12.308;2023-04-07T07:58:24;95269.38;;;7.71;60.27
69171;BME280;56279;47.902;12.308;2023-04-07T08:00:26;95262.31;;;7.91;59.42
69171;BME280;56279;47.902;12.308;2023-04-07T08:02:27;95271.03;;;8.12;59.51
69171;BME280;56279;47.902;12.308;2023-04-07T08:04:32;95266.84;;;8.31;58.97
69171;BME280;56279;47.902;12.308;2023-04-07T08:06:34;95265.00;;;8.47;58.52
69171;BME280;56279;47.902;12.308;2023-04-07T08:08:36;95268.66;;;8.61;58.06
69171;BME280;56279;47.902;12.308;2023-04-07T08:10:38;95265.75;;;8.72;57.81
69171;BME280;56279;47.902;12.308;2023-04-07T08:12:39;95268.91;;;8.84;57.73
69171;BME280;56279;47.902;12.308;2023-04-07T08:14:40;95267.00;;;9.00;57.63
69171;BME280;56279;47.902;12.308;2023-04-07T08:16:42;95271.16;;;9.16;57.85
69171;BME280;56279;47.902;12.308;2023-04-07T08:18:44;95272.69;;;9.27;57.07
69171;BME280;56279;47.902;12.308;2023-04-07T08:20:45;95264.78;;;9.32;57.26
69171;BME280;56279;47.902;12.308;2023-04-07T08:22:47;95273.16;;;9.44;56.96
69171;BME280;56279;47.902;12.308;2023-04-07T08:24:52;95260.97;;;9.58;56.98
69171;BME280;56279;47.902;12.308;2023-04-07T08:26:53;95267.47;;;9.71;56.25
69171;BME280;56279;47.902;12.308;2023-04-07T08:28:54;95262.94;;;9.82;56.17
69171;BME280;56279;47.902;12.308;2023-04-07T08:30:56;95266.06;;;9.89;55.85
69171;BME280;56279;47.902;12.308;2023-04-07T08:32:57;95261.78;;;9.98;55.73
69171;BME280;56279;47.902;12.308;2023-04-07T08:34:59;95262.00;;;10.06;55.49
69171;BME280;56279;47.902;12.308;2023-04-07T08:37:00;95259.34;;;10.06;54.80
69171;BME280;56279;47.902;12.308;2023-04-07T08:39:02;95266.72;;;10.14;54.94
69171;BME280;56279;47.902;12.308;2023-04-07T08:43:35;95262.06;;;10.35;54.90
69171;BME280;56279;47.902;12.308;2023-04-07T08:45:38;95261.22;;;10.45;54.69
69171;BME280;56279;47.902;12.308;2023-04-07T08:47:40;95266.16;;;10.51;54.48
69171;BME280;56279;47.902;12.308;2023-04-07T08:49:43;95260.50;;;10.34;54.32
69171;BME280;56279;47.902;12.308;2023-04-07T08:51:45;95263.00;;;10.15;55.14
69171;BME280;56279;47.902;12.308;2023-04-07T08:53:49;95267.25;;;10.11;55.48
69171;BME280;56279;47.902;12.308;2023-04-07T08:55:51;95270.66;;;10.17;56.07
69171;BME280;56279;47.902;12.308;2023-04-07T08:57:53;95264.28;;;10.23;56.01
69171;BME280;56279;47.902;12.308;2023-04-07T08:59:55;95265.28;;;10.27;55.88
69171;BME280;56279;47.902;12.308;2023-04-07T09:01:58;95261.56;;;10.33;55.67
69171;BME280;56279;47.902;12.308;2023-04-07T09:04:01;95270.56;;;10.27;55.12
69171;BME280;56279;47.902;12.308;2023-04-07T09:06:04;95268.53;;;10.19;56.12
69171;BME280;56279;47.902;12.308;2023-04-07T09:08:09;95257.94;;;10.24;56.08
69171;BME280;56279;47.902;12.308;2023-04-07T09:10:10;95257.28;;;10.42;55.70
69171;BME280;56279;47.902;12.308;2023-04-07T09:12:12;95259.22;;;10.60;55.27
69171;BME280;56279;47.902;12.308;2023-04-07T09:14:13;95255.31;;;10.81;55.07
69171;BME280;56279;47.902;12.308;2023-04-07T09:16:15;95250.59;;;11.02;55.16
69171;BME280;56279;47.902;12.308;2023-04-07T09:18:17;95255.94;;;11.21;54.39
69171;BME280;56279;47.902;12.308;2023-04-07T09:20:19;95252.59;;;11.39;54.33
69171;BME280;56279;47.902;12.308;2023-04-07T09:22:38;95248.88;;;11.58;54.14
69171;BME280;56279;47.902;12.308;2023-04-07T09:24:40;95248.44;;;11.75;53.63
69171;BME280;56279;47.902;12.308;2023-04-07T09:26:42;95243.72;;;11.91;53.15
69171;BME280;56279;47.902;12.308;2023-04-07T09:28:45;95242.22;;;12.03;52.71
69171;BME280;56279;47.902;12.308;2023-04-07T09:30:52;95244.97;;;12.12;53.05
69171;BME280;56279;47.902;12.308;2023-04-07T09:32:58;95241.19;;;12.18;52.98
69171;BME280;56279;47.902;12.308;2023-04-07T09:35:00;95241.63;;;12.25;52.88
69171;BME280;56279;47.902;12.308;2023-04-07T09:37:04;95239.97;;;12.29;52.56
69171;BME280;56279;47.902;12.308;2023-04-07T09:39:09;95242.03;;;12.32;52.84
69171;BME280;56279;47.902;12.308;2023-04-07T09:41:15;95243.31;;;12.34;52.22
69171;BME280;56279;47.902;12.308;2023-04-07T09:43:18;95238.53;;;12.36;51.76
69171;BME280;56279;47.902;12.308;2023-04-07T09:45:26;95234.97;;;12.27;52.15
69171;BME280;56279;47.902;12.308;2023-04-07T09:47:28;95231.03;;;12.25;52.09
69171;BME280;56279;47.902;12.308;2023-04-07T09:49:31;95237.63;;;12.27;51.82
69171;BME280;56279;47.902;12.308;2023-04-07T09:51:32;95224.00;;;12.34;51.51
69171;BME280;56279;47.902;12.308;2023-04-07T09:53:48;95226.06;;;12.37;51.61
69171;BME280;56279;47.902;12.308;2023-04-07T09:55:49;95218.06;;;12.23;51.29
69171;BME280;56279;47.902;12.308;2023-04-07T09:57:52;95224.00;;;12.02;51.02
69171;BME280;56279;47.902;12.308;2023-04-07T10:02:50;95216.13;;;11.17;52.24
69171;BME280;56279;47.902;12.308;2023-04-07T10:04:54;95219.25;;;10.95;52.45
69171;BME280;56279;47.902;12.308;2023-04-07T10:06:57;95214.63;;;10.87;52.73
69171;BME280;56279;47.902;12.308;2023-04-07T10:08:58;95221.06;;;11.00;52.49
69171;BME280;56279;47.902;12.308;2023-04-07T10:11:02;95213.47;;;11.17;52.18
69171;BME280;56279;47.902;12.308;2023-04-07T10:13:05;95205.19;;;11.24;51.88
69171;BME280;56279;47.902;12.308;2023-04-07T10:15:07;95210.94;;;11.31;51.56
69171;BME280;56279;47.902;12.308;2023-04-07T10:17:14;95210.97;;;11.26;51.69
69171;BME280;56279;47.902;12.308;2023-04-07T10:19:21;95205.63;;;11.31;51.45
69171;BME280;56279;47.902;12.308;2023-04-07T10:21:22;95206.03;;;11.43;51.33
69171;BME280;56279;47.902;12.308;2023-04-07T10:25:58;95202.75;;;11.69;51.15
69171;BME280;56279;47.902;12.308;2023-04-07T10:28:07;95204.53;;;11.74;50.71
69171;BME280;56279;47.902;12.308;2023-04-07T10:30:13;95201.63;;;11.75;50.95
69171;BME280;56279;47.902;12.308;2023-04-07T10:32:19;95204.09;;;11.67;50.76
69171;BME280;56279;47.902;12.308;2023-04-07T10:39:18;95205.84;;;11.76;51.61
69171;BME280;56279;47.902;12.308;2023-04-07T10:41:48;95201.75;;;12.03;51.13
69171;BME280;56279;47.902;12.308;2023-04-07T10:43:49;95197.78;;;12.19;50.09
69171;BME280;56279;47.902;12.308;2023-04-07T10:45:51;95204.31;;;12.08;50.18
69171;BME280;56279;47.902;12.308;2023-04-07T10:50:18;95199.47;;;12.28;50.21
69171;BME280;56279;47.902;12.308;2023-04-07T10:52:21;95198.41;;;12.29;50.55
69171;BME280;56279;47.902;12.308;2023-04-07T10:54:24;95194.03;;;12.38;50.56
69171;BME280;56279;47.902;12.308;2023-04-07T10:59:14;95196.41;;;12.67;49.70
69171;BME280;56279;47.902;12.308;2023-04-07T11:01:17;95195.56;;;12.72;49.66
69171;BME280;56279;47.902;12.308;2023-04-07T11:03:20;95190.06;;;12.68;49.53
69171;BME280;56279;47.902;12.308;2023-04-07T11:05:22;95187.78;;;12.62;49.41
69171;BME280;56279;47.902;12.308;2023-04-07T11:07:43;95186.81;;;12.58;49.63
69171;BME280;56279;47.902;12.308;2023-04-07T11:09:45;95193.38;;;12.60;49.56
69171;BME280;56279;47.902;12.308;2023-04-07T11:11:46;95179.66;;;12.72;49.29
69171;BME280;56279;47.902;12.308;2023-04-07T11:13:49;95184.09;;;12.76;48.85
69171;BME280;56279;47.902;12.308;2023-04-07T11:15:53;95183.38;;;12.84;48.60
69171;BME280;56279;47.902;12.308;2023-04-07T11:20:11;95179.28;;;12.92;48.64
69171;BME280;56279;47.902;12.308;2023-04-07T11:22:18;95182.75;;;13.06;48.25
69171;BME280;56279;47.902;12.308;2023-04-07T11:24:32;95176.06;;;13.22;48.13
69171;BME280;56279;47.902;12.308;2023-04-07T11:26:40;95176.63;;;13.19;47.96
69171;BME280;56279;47.902;12.308;2023-04-07T11:28:49;95173.13;;;13.10;48.13
69171;BME280;56279;47.902;12.308;2023-04-07T11:30:53;95173.78;;;13.02;48.19
69171;BME280;56279;47.902;12.308;2023-04-07T11:32:55;95180.94;;;13.01;48.18
69171;BME280;56279;47.902;12.308;2023-04-07T11:34:57;95175.34;;;13.03;48.80
69171;BME280;56279;47.902;12.308;2023-04-07T11:37:24;95174.09;;;13.14;48.38